Flight Track Log - Related Links

Times and Time Zones

All times are in EDT time to prevent confusion due to time zone crossing. See the SWA1031 flight status page for this flight to view local times or setup timezone preferences in your user account.

Time Position Orientation Groundspeed Altitude Reporting Facility
EDT Latitude Longitude Course Direction KTS MPH feet Rate Location/Type
Sat 12:51:42 PM 28.4000 -81.3000 204° Southwest 173 199 700  Level Orlando TRACON
Sat 12:53:00 PM 28.3333 -81.3333 204° Southwest 221 254 3,900 2,826 Climbing Orlando TRACON
Sat 12:54:00 PM 28.2833 -81.3667 210° Southwest 227 261 7,200 2,950 Climbing Orlando TRACON
Sat 12:55:00 PM 28.3000 -81.4333 286° West 248 285 9,800 2,238 Climbing Orlando TRACON
Sat 12:56:06 PM 28.3667 -81.5167 312° West 314 361 11,900 1,810 Climbing Orlando TRACON
Sat 12:57:06 PM 28.4333 -81.5833 319° Northwest 367 422 13,600 2,050 Climbing Orlando TRACON
Sat 12:58:06 PM 28.5167 -81.6500 325° Northwest 372 428 16,000 1,273 Climbing Orlando TRACON
Sat 12:59:51 PM 28.5086 -81.8389 267° West 369 425 17,100 1,055 Climbing Jacksonville Center
Sat 01:00:51 PM 28.4783 -81.9528 253° West 367 422 18,900 2,050 Climbing Jacksonville Center
Sat 01:01:51 PM 28.4519 -82.0733 256° West 380 437 21,200 1,900 Climbing Jacksonville Center
Sat 01:02:51 PM 28.4256 -82.1939 256° West 391 450 22,700 1,350 Climbing Jacksonville Center
Sat 01:03:51 PM 28.3992 -82.3167 256° West 397 457 23,900 1,150 Climbing Jacksonville Center
Sat 01:04:51 PM 28.3661 -82.4467 254° West 409 471 25,000 1,041 Climbing Jacksonville Center
Sat 01:05:52 PM 28.3372 -82.5789 256° West 423 487 26,000 1,100 Climbing Jacksonville Center
Sat 01:06:51 PM 28.3189 -82.7158 261° West 434 499 27,200 1,261 Climbing Jacksonville Center
Sat 01:07:51 PM 28.3836 -82.8311 303° West 402 463 28,500 1,000 Climbing Jacksonville Center
Sat 01:08:51 PM 28.4547 -82.9444 306° West 414 476 29,200 1,050 Climbing Jacksonville Center
Sat 01:09:51 PM 28.5233 -83.0603 304° West 434 499 30,600 1,100 Climbing Jacksonville Center
Sat 01:10:51 PM 28.5942 -83.1739 305° West 439 505 31,400 950 Climbing Jacksonville Center
Sat 01:11:51 PM 28.6647 -83.2878 305° West 444 511 32,500 1,100 Climbing Jacksonville Center
Sat 01:12:51 PM 28.7333 -83.4039 304° West 444 511 33,600 1,050 Climbing Jacksonville Center
Sat 01:13:51 PM 28.8036 -83.5181 305° West 444 511 34,600 1,000 Climbing Jacksonville Center
Sat 01:14:51 PM 28.8742 -83.6322 305° West 444 511 35,600 700 Climbing Jacksonville Center
Sat 01:15:51 PM 28.9381 -83.7444 303° West 444 511 36,000 200 Climbing Jacksonville Center
Sat 01:16:51 PM 29.0061 -83.8589 304° West 444 511 36,000  Level Jacksonville Center
Sat 01:17:51 PM 29.0761 -83.9736 305° West 444 511 36,000  Level Jacksonville Center
Sat 01:18:51 PM 29.1461 -84.0886 305° West 444 511 36,000  Level Jacksonville Center
Sat 01:19:51 PM 29.2119 -84.2011 304° West 444 511 36,000  Level Jacksonville Center
Sat 01:20:51 PM 29.2714 -84.3042 303° West 444 511 36,000  Level Jacksonville Center
Sat 01:21:51 PM 29.3408 -84.4197 305° West 444 511 36,000  Level Jacksonville Center
Sat 01:22:51 PM 29.4106 -84.5328 305° West 444 511 36,000  Level Jacksonville Center
Sat 01:23:51 PM 29.4800 -84.6483 305° West 444 511 36,000  Level Jacksonville Center
Sat 01:24:51 PM 29.5472 -84.7642 304° West 444 511 36,000  Level Jacksonville Center
Sat 01:25:51 PM 29.6142 -84.8850 303° West 444 511 36,000  Level Jacksonville Center
Sat 01:26:51 PM 29.6833 -84.9986 305° West 444 511 36,000  Level Jacksonville Center
Sat 01:27:51 PM 29.7522 -85.1175 304° West 444 511 36,000  Level Jacksonville Center
Sat 01:28:51 PM 29.8192 -85.2339 304° West 444 511 36,000  Level Jacksonville Center
Sat 01:29:51 PM 29.8881 -85.3481 305° West 444 511 36,000  Level Jacksonville Center
Sat 01:30:51 PM 29.9525 -85.4622 303° West 444 511 36,000  Level Jacksonville Center
Sat 01:31:51 PM 30.0250 -85.5986 302° West 450 518 36,000  Level Jacksonville Center
Sat 01:32:51 PM 30.0914 -85.7108 304° West 440 506 36,000  Level Jacksonville Center
Sat 01:33:51 PM 30.1617 -85.8306 304° West 447 514 36,000  Level Jacksonville Center
Sat 01:34:51 PM 30.2281 -85.9433 304° West 441 507 36,000  Level Jacksonville Center
Sat 01:35:51 PM 30.2939 -86.0583 304° West 436 502 36,000  Level Jacksonville Center
Sat 01:36:51 PM 30.3558 -86.1711 302° West 436 502 36,000  Level Jacksonville Center
Sat 01:37:51 PM 30.4219 -86.2842 304° West 431 496 36,000  Level Jacksonville Center
Sat 01:38:51 PM 30.4856 -86.3997 303° West 426 490 36,000  Level Jacksonville Center
Sat 01:39:51 PM 30.5511 -86.5131 304° West 421 484 36,000  Level Jacksonville Center
Sat 01:40:51 PM 30.6147 -86.6242 304° West 421 484 36,000  Level Jacksonville Center
Sat 01:41:51 PM 30.6783 -86.7378 303° West 421 484 36,000  Level Jacksonville Center
Sat 01:42:51 PM 30.7394 -86.8514 302° West 421 484 36,000  Level Jacksonville Center
Sat 01:43:51 PM 30.7989 -86.9531 304° West 421 484 36,000  Level Jacksonville Center
Sat 01:44:51 PM 30.8600 -87.0669 302° West 421 484 36,000 -625 Level Jacksonville Center
Sat 01:47:03 PM 30.9953 -87.3144 303° West 413 475 34,000 -619 Descending Houston Center
Sat 01:48:05 PM 31.0561 -87.4253 303° West 408 470 34,000  Level Houston Center
Sat 01:49:07 PM 31.1172 -87.5369 303° West 410 472 34,000  Level Houston Center
Sat 01:50:09 PM 31.1792 -87.6486 303° West 412 474 34,000  Level Houston Center
Sat 01:51:10 PM 31.2517 -87.7822 302° West 408 470 34,000  Level Houston Center
Sat 01:52:12 PM 31.3131 -87.8944 303° West 413 475 34,000  Level Houston Center
Sat 01:53:14 PM 31.3750 -88.0081 303° West 418 481 34,000  Level Houston Center
Sat 01:54:16 PM 31.4353 -88.1214 302° West 414 476 34,000 -195 Level Houston Center
Sat 01:55:17 PM 31.4956 -88.2317 303° West 404 465 33,600 -780 Descending Houston Center
Sat 01:56:19 PM 31.5631 -88.3608 302° West 391 450 32,400 -1,016 Descending Houston Center
Sat 01:57:21 PM 31.6203 -88.4692 302° West 393 452 31,500 -919 Descending Houston Center
Sat 01:58:23 PM 31.6794 -88.5786 302° West 396 456 30,500 -919 Descending Houston Center
Sat 01:59:25 PM 31.7375 -88.6875 302° West 392 451 29,600 -927 Descending Houston Center
Sat 02:00:26 PM 31.7958 -88.7975 302° West 398 458 28,600 -976 Descending Houston Center
Sat 02:01:28 PM 31.8544 -88.9083 302° West 398 458 27,600 -1,065 Descending Houston Center
Sat 02:02:30 PM 31.9239 -89.0389 302° West 393 452 26,400 -1,065 Descending Houston Center
Sat 02:03:32 PM 31.9803 -89.1464 302° West 390 449 25,400 -976 Descending Houston Center
Sat 02:04:33 PM 32.0342 -89.2514 301° West 378 435 24,400 -976 Descending Houston Center
Sat 02:05:35 PM 32.0881 -89.3544 302° West 371 427 23,400 -1,007 Descending Houston Center
Sat 02:06:50 PM 32.1594 -89.4886 302° West 370 426 22,100 -1,422 Descending Memphis Center
Sat 02:07:50 PM 32.2061 -89.5939 298° West 365 420 20,200 -2,600 Descending Memphis Center
Sat 02:08:50 PM 32.2567 -89.6964 300° West 358 412 16,900 -3,300 Descending Memphis Center
Sat 02:09:50 PM 32.3200 -89.7869 310° West 358 412 13,600 -3,000 Descending Memphis Center
Sat 02:10:50 PM 32.3808 -89.8703 311° West 352 405 10,900 -1,500 Descending Memphis Center
Sat 02:11:50 PM 32.4372 -89.9289 319° Northwest 315 362 10,600 -1,050 Descending Memphis Center
Sat 02:12:50 PM 32.4856 -89.9706 324° Northwest 260 299 8,800 -1,950 Descending Memphis Center
Sat 02:13:50 PM 32.5003 -90.0272 287° West 193 222 6,700 -1,950 Descending Memphis Center
Sat 02:14:50 PM 32.4794 -90.0814 246° West 167 192 4,900 -1,650 Descending Memphis Center
Sat 02:15:50 PM 32.4442 -90.1258 227° Southwest 167 192 3,400 -1,050 Descending Memphis Center
Sat 02:16:50 PM 32.3900 -90.1481 199° South 178 205 2,800 -550 Descending Memphis Center
Sat 02:17:50 PM 32.3272 -90.1508 182° South 205 236 2,300 -298 Descending Memphis Center
Sat 02:18:51 PM 32.2647 -90.1289 163° South 216 249 2,200 -50 Descending Memphis Center
Sat 02:19:50 PM 32.2103 -90.1019 157° South 221 254 2,200 -202 Level Memphis Center
Sat 02:20:50 PM 32.2228 -90.0503 74° East 161 185 1,800 -400 Descending Memphis Center

Login

Don't have an account? Register now (free) for customized features, flight alerts, and more!